createdAt,value
2023-03-26T00:03:12.346Z,143.25
2023-03-26T00:55:12.955Z,184.62
2023-03-26T00:59:12.965Z,182.30
2023-03-26T01:03:21.892Z,182.86
2023-03-26T01:07:13.991Z,180.14
2023-03-26T02:39:13.509Z,177.37
2023-03-26T02:43:13.584Z,173.84
2023-03-26T02:47:13.629Z,171.41
2023-03-26T02:51:13.710Z,176.50
2023-03-26T02:55:13.767Z,168.06
2023-03-26T02:59:13.755Z,169.11
2023-03-26T03:03:13.879Z,169.07
2023-03-26T03:07:13.883Z,165.03
2023-03-26T03:11:14.780Z,170.12
2023-03-26T03:15:13.945Z,165.71
2023-03-26T03:19:14.002Z,169.46
2023-03-26T03:23:14.092Z,162.47
2023-03-26T03:27:14.167Z,164.84
2023-03-26T03:31:14.304Z,162.79
2023-03-26T03:35:14.267Z,166.24
2023-03-26T03:39:14.351Z,162.57
2023-03-26T03:43:14.407Z,161.53
2023-03-26T03:47:14.456Z,161.97
2023-03-26T03:51:14.511Z,161.63
2023-03-26T03:55:14.586Z,164.16
2023-03-26T03:59:14.659Z,162.78
2023-03-26T04:03:14.765Z,162.53
2023-03-26T04:07:14.815Z,164.31
2023-03-26T04:11:14.873Z,161.33
2023-03-26T04:15:14.878Z,159.41
2023-03-26T04:19:14.988Z,161.64
2023-03-26T04:23:15.046Z,158.62
2023-03-26T04:27:15.074Z,160.74
2023-03-26T04:31:15.166Z,160.72
2023-03-26T04:35:15.189Z,157.53
2023-03-26T04:39:15.252Z,157.73
2023-03-26T04:43:15.356Z,160.14
2023-03-26T04:47:15.376Z,161.80
2023-03-26T04:51:15.413Z,156.12
2023-03-26T04:55:15.475Z,158.21
2023-03-26T04:59:15.522Z,161.44
2023-03-26T05:03:15.611Z,159.86
2023-03-26T05:07:15.607Z,159.73
2023-03-26T05:11:15.716Z,161.29
2023-03-26T05:15:15.805Z,160.79
2023-03-26T05:19:15.843Z,163.13
2023-03-26T05:23:15.924Z,160.51
2023-03-26T05:27:15.966Z,163.27
2023-03-26T05:31:16.015Z,160.37
2023-03-26T05:35:16.152Z,161.47
2023-03-26T05:39:16.202Z,159.87
2023-03-26T05:43:16.273Z,159.51
2023-03-26T05:47:16.332Z,162.61
2023-03-26T05:51:16.496Z,155.92
2023-03-26T21:07:20.653Z,145.53
2023-03-26T21:11:26.622Z,142.33
2023-03-26T21:15:23.826Z,148.09
2023-03-26T21:19:20.631Z,150.77
2023-03-26T21:23:20.645Z,149.00
2023-03-26T21:31:20.594Z,152.47
2023-03-26T21:35:20.560Z,145.44
2023-03-26T21:39:20.436Z,157.43
2023-03-26T21:43:20.432Z,146.37
2023-03-26T21:47:20.365Z,154.42
2023-03-26T21:51:20.339Z,152.97
2023-03-26T21:55:20.300Z,151.33
2023-03-26T21:59:20.267Z,153.98
2023-03-26T22:03:20.239Z,144.53
2023-03-26T22:07:20.210Z,155.11
2023-03-26T22:11:20.163Z,150.17
2023-03-26T22:15:20.150Z,141.70
2023-03-26T22:19:20.077Z,145.90
2023-03-26T22:23:20.065Z,149.41
2023-03-26T22:27:20.017Z,145.45
2023-03-26T22:31:20.001Z,143.37
2023-03-26T22:35:20.131Z,147.07
2023-03-26T22:39:20.154Z,142.45
2023-03-26T22:43:20.239Z,141.87
2023-03-26T22:47:20.379Z,142.64
2023-03-26T22:51:20.531Z,140.46
2023-03-26T22:55:28.433Z,141.05
2023-03-26T22:59:21.457Z,139.48
2023-03-26T23:03:20.428Z,146.18
2023-03-26T23:07:21.400Z,140.36
2023-03-26T23:11:20.353Z,143.66
2023-03-26T23:15:20.345Z,142.83
2023-03-26T23:19:20.307Z,142.63
2023-03-26T23:23:20.228Z,134.72
2023-03-26T23:27:22.652Z,143.07
2023-03-26T23:31:20.591Z,134.83
2023-03-26T23:35:20.596Z,135.13
2023-03-26T23:39:20.654Z,125.34
2023-03-26T23:43:20.733Z,128.98
2023-03-26T23:47:20.851Z,136.32
2023-03-26T23:51:20.985Z,137.26
2023-03-26T23:55:21.096Z,136.62
2023-03-26T23:59:21.209Z,127.63
